createdAt,value
2022-09-28T00:06:53.936Z,67.39
2022-09-28T00:28:36.984Z,54.82
2022-09-28T00:50:26.238Z,64.41
2022-09-28T01:12:09.932Z,52.61
2022-09-28T01:34:00.256Z,63.10
2022-09-28T01:55:45.876Z,55.73
2022-09-28T02:17:29.064Z,69.93
2022-09-28T02:39:16.316Z,53.37
2022-09-28T03:01:15.199Z,66.11
2022-09-28T03:23:23.204Z,58.02
2022-09-28T03:45:01.676Z,60.64
2022-09-28T04:06:45.371Z,61.99
2022-09-28T04:28:47.258Z,55.69
2022-09-28T04:50:30.762Z,65.80
2022-09-28T05:12:29.076Z,57.53
2022-09-28T05:34:12.528Z,60.78
2022-09-28T05:55:59.256Z,59.82
2022-09-28T06:17:43.281Z,58.68
2022-09-28T06:39:58.533Z,57.56
2022-09-28T07:01:41.973Z,58.55
2022-09-28T07:23:49.595Z,59.14
2022-09-28T07:45:39.388Z,62.52
2022-09-28T08:07:25.069Z,55.00
2022-09-28T08:29:16.330Z,46.14
2022-09-28T08:51:14.227Z,39.35
2022-09-28T09:13:30.247Z,30.71
2022-09-28T09:35:53.353Z,25.88
2022-09-28T09:58:03.053Z,26.96
2022-09-28T10:19:59.195Z,30.25
2022-09-28T10:42:03.716Z,33.22
2022-09-28T11:03:54.959Z,42.42
2022-09-28T11:25:39.095Z,50.03
2022-09-28T11:47:54.961Z,53.82
2022-09-28T12:09:45.477Z,55.24
2022-09-28T12:31:38.588Z,57.51
2022-09-28T12:53:38.936Z,68.81
2022-09-28T13:15:41.066Z,51.13
2022-09-28T13:37:25.917Z,53.08
2022-09-28T13:59:18.751Z,56.54
2022-09-28T14:21:34.596Z,68.21
2022-09-28T14:43:26.201Z,51.80
2022-09-28T15:05:16.300Z,57.79
2022-09-28T15:26:59.917Z,57.31
2022-09-28T15:48:51.650Z,58.97
2022-09-28T16:10:36.993Z,57.17
2022-09-28T16:32:37.719Z,67.14
2022-09-28T16:54:41.557Z,57.76
2022-09-28T17:16:57.338Z,56.57
2022-09-28T17:38:31.903Z,67.19
2022-09-28T18:00:17.089Z,60.18
2022-09-28T18:22:01.208Z,54.71
2022-09-28T18:43:49.166Z,64.64
2022-09-28T19:05:34.441Z,56.63
2022-09-28T19:27:17.881Z,68.37
2022-09-28T19:49:02.593Z,55.37
2022-09-28T20:10:51.782Z,69.37
2022-09-28T20:32:35.090Z,53.56
2022-09-28T20:54:18.144Z,67.08
2022-09-28T21:16:02.874Z,53.00
2022-09-28T21:37:45.666Z,66.91
2022-09-28T21:59:28.708Z,55.82
2022-09-28T22:21:14.297Z,61.63
2022-09-28T22:42:57.359Z,60.74
2022-09-28T23:04:40.506Z,60.58
2022-09-28T23:26:26.396Z,58.26
2022-09-28T23:48:09.414Z,69.55
